sensor_id;sensor_type;location;lat;lon;timestamp;pressure;altitude;pressure_sealevel;temperature;humidity
29461;BME280;16428;47.836;35.106;2022-09-06T00:02:00;101743.72;;;14.80;92.68
29461;BME280;16428;47.836;35.106;2022-09-06T00:04:29;101738.00;;;14.75;93.26
29461;BME280;16428;47.836;35.106;2022-09-06T00:06:57;101747.31;;;14.72;93.85
29461;BME280;16428;47.836;35.106;2022-09-06T00:09:26;101742.88;;;14.80;93.43
29461;BME280;16428;47.836;35.106;2022-09-06T00:11:54;101744.13;;;14.69;93.84
29461;BME280;16428;47.836;35.106;2022-09-06T00:18:05;101747.00;;;14.67;94.26
29461;BME280;16428;47.836;35.106;2022-09-06T00:20:36;101750.56;;;14.68;94.39
29461;BME280;16428;47.836;35.106;2022-09-06T00:23:11;101751.09;;;14.63;94.72
29461;BME280;16428;47.836;35.106;2022-09-06T00:25:39;101751.97;;;14.56;95.68
29461;BME280;16428;47.836;35.106;2022-09-06T00:28:11;101746.91;;;14.53;95.62
29461;BME280;16428;47.836;35.106;2022-09-06T00:30:41;101749.44;;;14.54;96.45
29461;BME280;16428;47.836;35.106;2022-09-06T00:33:09;101747.41;;;14.56;95.61
29461;BME280;16428;47.836;35.106;2022-09-06T00:35:38;101742.06;;;14.48;96.40
29461;BME280;16428;47.836;35.106;2022-09-06T00:38:06;101745.13;;;14.45;96.69
29461;BME280;16428;47.836;35.106;2022-09-06T00:40:35;101745.31;;;14.35;98.26
29461;BME280;16428;47.836;35.106;2022-09-06T00:43:04;101741.09;;;14.33;97.86
29461;BME280;16428;47.836;35.106;2022-09-06T00:49:49;101735.09;;;14.15;99.81
29461;BME280;16428;47.836;35.106;2022-09-06T00:52:22;101735.50;;;14.03;100.00
29461;BME280;16428;47.836;35.106;2022-09-06T00:54:53;101735.13;;;14.06;100.00
29461;BME280;16428;47.836;35.106;2022-09-06T00:57:23;101737.19;;;14.04;100.00
29461;BME280;16428;47.836;35.106;2022-09-06T00:59:55;101737.19;;;14.04;100.00
29461;BME280;16428;47.836;35.106;2022-09-06T01:02:23;101730.09;;;14.03;100.00
29461;BME280;16428;47.836;35.106;2022-09-06T01:04:53;101733.81;;;14.02;100.00
29461;BME280;16428;47.836;35.106;2022-09-06T01:10:47;101740.06;;;14.03;100.00
29461;BME280;16428;47.836;35.106;2022-09-06T01:25:35;101730.81;;;13.81;100.00
29461;BME280;16428;47.836;35.106;2022-09-06T01:28:36;101734.88;;;13.77;100.00
29461;BME280;16428;47.836;35.106;2022-09-06T01:34:42;101734.22;;;13.75;100.00
29461;BME280;16428;47.836;35.106;2022-09-06T01:37:15;101736.09;;;13.75;100.00
29461;BME280;16428;47.836;35.106;2022-09-06T01:39:48;101737.78;;;13.67;100.00
29461;BME280;16428;47.836;35.106;2022-09-06T01:42:26;101736.59;;;13.62;100.00
29461;BME280;16428;47.836;35.106;2022-09-06T01:44:59;101743.72;;;13.55;100.00
29461;BME280;16428;47.836;35.106;2022-09-06T01:56:52;101749.09;;;13.63;100.00
29461;BME280;16428;47.836;35.106;2022-09-06T02:02:32;101743.03;;;13.53;100.00
29461;BME280;16428;47.836;35.106;2022-09-06T02:05:10;101739.31;;;13.46;100.00
29461;BME280;16428;47.836;35.106;2022-09-06T02:07:45;101744.94;;;13.44;100.00
29461;BME280;16428;47.836;35.106;2022-09-06T02:10:24;101748.47;;;13.36;100.00
29461;BME280;16428;47.836;35.106;2022-09-06T02:12:58;101750.66;;;13.25;100.00
29461;BME280;16428;47.836;35.106;2022-09-06T02:15:33;101749.31;;;13.29;100.00
29461;BME280;16428;47.836;35.106;2022-09-06T02:18:14;101752.69;;;13.23;100.00
29461;BME280;16428;47.836;35.106;2022-09-06T02:20:48;101750.81;;;13.31;100.00
29461;BME280;16428;47.836;35.106;2022-09-06T02:23:27;101751.16;;;13.20;100.00
29461;BME280;16428;47.836;35.106;2022-09-06T02:26:22;101754.19;;;13.17;100.00
29461;BME280;16428;47.836;35.106;2022-09-06T02:28:52;101750.50;;;13.18;100.00
29461;BME280;16428;47.836;35.106;2022-09-06T02:31:28;101757.19;;;13.14;100.00
29461;BME280;16428;47.836;35.106;2022-09-06T02:33:59;101747.44;;;12.97;100.00
29461;BME280;16428;47.836;35.106;2022-09-06T02:36:30;101759.41;;;12.94;100.00
29461;BME280;16428;47.836;35.106;2022-09-06T02:38:59;101754.16;;;12.93;100.00
29461;BME280;16428;47.836;35.106;2022-09-06T02:41:32;101751.78;;;12.90;100.00
29461;BME280;16428;47.836;35.106;2022-09-06T02:44:03;101756.50;;;12.88;100.00
29461;BME280;16428;47.836;35.106;2022-09-06T02:46:31;101753.28;;;12.84;100.00
29461;BME280;16428;47.836;35.106;2022-09-06T02:49:00;101758.19;;;12.81;100.00
29461;BME280;16428;47.836;35.106;2022-09-06T02:51:39;101756.50;;;12.80;100.00
29461;BME280;16428;47.836;35.106;2022-09-06T02:54:08;101753.97;;;12.78;100.00
29461;BME280;16428;47.836;35.106;2022-09-06T02:56:37;101759.84;;;12.65;100.00
29461;BME280;16428;47.836;35.106;2022-09-06T02:59:05;101754.09;;;12.68;100.00
29461;BME280;16428;47.836;35.106;2022-09-06T03:01:34;101763.69;;;12.55;100.00
29461;BME280;16428;47.836;35.106;2022-09-06T03:04:03;101767.38;;;12.54;100.00
29461;BME280;16428;47.836;35.106;2022-09-06T03:06:31;101766.91;;;12.58;100.00
29461;BME280;16428;47.836;35.106;2022-09-06T03:09:11;101775.97;;;12.49;100.00
29461;BME280;16428;47.836;35.106;2022-09-06T03:11:41;101776.47;;;12.45;100.00
29461;BME280;16428;47.836;35.106;2022-09-06T03:14:10;101775.44;;;12.46;100.00
29461;BME280;16428;47.836;35.106;2022-09-06T03:16:41;101773.13;;;12.51;100.00
29461;BME280;16428;47.836;35.106;2022-09-06T03:19:11;101777.66;;;12.50;100.00
29461;BME280;16428;47.836;35.106;2022-09-06T03:21:40;101779.69;;;12.48;100.00
29461;BME280;16428;47.836;35.106;2022-09-06T03:24:12;101783.38;;;12.47;100.00
29461;BME280;16428;47.836;35.106;2022-09-06T03:26:41;101776.31;;;12.54;100.00
29461;BME280;16428;47.836;35.106;2022-09-06T03:29:10;101785.06;;;12.48;100.00
29461;BME280;16428;47.836;35.106;2022-09-06T03:32:05;101785.72;;;12.42;100.00
29461;BME280;16428;47.836;35.106;2022-09-06T03:34:35;101789.41;;;12.41;100.00
29461;BME280;16428;47.836;35.106;2022-09-06T03:37:05;101790.09;;;12.43;100.00
29461;BME280;16428;47.836;35.106;2022-09-06T03:39:34;101792.47;;;12.46;100.00
29461;BME280;16428;47.836;35.106;2022-09-06T03:42:08;101793.94;;;12.41;100.00
29461;BME280;16428;47.836;35.106;2022-09-06T03:44:36;101796.00;;;12.47;100.00
29461;BME280;16428;47.836;35.106;2022-09-06T03:47:04;101797.38;;;12.51;100.00
29461;BME280;16428;47.836;35.106;2022-09-06T03:49:36;101807.66;;;12.55;100.00
29461;BME280;16428;47.836;35.106;2022-09-06T03:52:11;101795.31;;;12.45;100.00
29461;BME280;16428;47.836;35.106;2022-09-06T03:54:44;101799.03;;;12.44;100.00
29461;BME280;16428;47.836;35.106;2022-09-06T03:57:13;101805.25;;;12.44;100.00
29461;BME280;16428;47.836;35.106;2022-09-06T03:59:43;101806.13;;;12.53;100.00
29461;BME280;16428;47.836;35.106;2022-09-06T04:02:15;101813.09;;;12.63;100.00
29461;BME280;16428;47.836;35.106;2022-09-06T04:04:45;101817.16;;;12.76;100.00
29461;BME280;16428;47.836;35.106;2022-09-06T04:07:14;101809.22;;;12.74;100.00
29461;BME280;16428;47.836;35.106;2022-09-06T04:09:48;101812.25;;;12.71;100.00
29461;BME280;16428;47.836;35.106;2022-09-06T04:12:24;101808.06;;;12.77;100.00
29461;BME280;16428;47.836;35.106;2022-09-06T04:14:54;101812.28;;;12.87;100.00
29461;BME280;16428;47.836;35.106;2022-09-06T04:17:24;101814.13;;;12.79;100.00
29461;BME280;16428;47.836;35.106;2022-09-06T04:19:55;101812.13;;;12.81;100.00
29461;BME280;16428;47.836;35.106;2022-09-06T04:22:34;101819.91;;;12.92;99.89
29461;BME280;16428;47.836;35.106;2022-09-06T04:25:05;101818.88;;;13.01;99.64
29461;BME280;16428;47.836;35.106;2022-09-06T04:27:40;101821.16;;;13.22;97.40
29461;BME280;16428;47.836;35.106;2022-09-06T04:30:11;101823.34;;;13.18;96.92
29461;BME280;16428;47.836;35.106;2022-09-06T04:32:41;101832.13;;;13.20;96.18
29461;BME280;16428;47.836;35.106;2022-09-06T04:35:11;101831.44;;;13.26;96.54
29461;BME280;16428;47.836;35.106;2022-09-06T04:37:41;101827.59;;;13.29;96.63
29461;BME280;16428;47.836;35.106;2022-09-06T04:40:10;101832.44;;;13.33;96.85
29461;BME280;16428;47.836;35.106;2022-09-06T04:42:39;101832.78;;;13.47;96.29
29461;BME280;16428;47.836;35.106;2022-09-06T04:45:08;101833.50;;;13.57;95.78
29461;BME280;16428;47.836;35.106;2022-09-06T04:47:37;101832.81;;;13.71;92.98
29461;BME280;16428;47.836;35.106;2022-09-06T04:50:05;101827.22;;;13.81;91.71
29461;BME280;16428;47.836;35.106;2022-09-06T04:52:35;101827.72;;;13.84;92.54
29461;BME280;16428;47.836;35.106;2022-09-06T04:55:03;101830.38;;;13.92;91.91
29461;BME280;16428;47.836;35.106;2022-09-06T04:57:33;101827.69;;;14.00;91.51
29461;BME280;16428;47.836;35.106;2022-09-06T05:00:01;101825.78;;;14.09;90.26
29461;BME280;16428;47.836;35.106;2022-09-06T05:02:31;101825.78;;;14.17;90.33
29461;BME280;16428;47.836;35.106;2022-09-06T05:05:01;101833.00;;;14.33;88.61
29461;BME280;16428;47.836;35.106;2022-09-06T05:07:32;101829.97;;;14.36;89.21
29461;BME280;16428;47.836;35.106;2022-09-06T05:10:02;101825.88;;;14.48;87.89
29461;BME280;16428;47.836;35.106;2022-09-06T05:15:25;101824.47;;;14.60;85.92
29461;BME280;16428;47.836;35.106;2022-09-06T05:18:00;101826.47;;;14.66;87.20
29461;BME280;16428;47.836;35.106;2022-09-06T05:20:32;101828.81;;;14.69;85.86
29461;BME280;16428;47.836;35.106;2022-09-06T05:23:01;101830.75;;;14.84;86.18
29461;BME280;16428;47.836;35.106;2022-09-06T05:25:29;101833.78;;;14.89;85.53
29461;BME280;16428;47.836;35.106;2022-09-06T05:28:01;101842.22;;;14.94;84.44
29461;BME280;16428;47.836;35.106;2022-09-06T05:30:30;101841.81;;;15.05;83.28
29461;BME280;16428;47.836;35.106;2022-09-06T05:32:59;101849.84;;;15.13;83.26
29461;BME280;16428;47.836;35.106;2022-09-06T05:35:28;101847.16;;;15.13;81.67
29461;BME280;16428;47.836;35.106;2022-09-06T05:37:56;101845.09;;;15.15;81.14
29461;BME280;16428;47.836;35.106;2022-09-06T05:40:25;101850.75;;;15.28;80.70
29461;BME280;16428;47.836;35.106;2022-09-06T05:42:53;101848.72;;;15.30;80.75
29461;BME280;16428;47.836;35.106;2022-09-06T05:45:23;101848.72;;;15.30;80.42
29461;BME280;16428;47.836;35.106;2022-09-06T05:47:52;101848.72;;;15.30;80.51
29461;BME280;16428;47.836;35.106;2022-09-06T05:50:23;101853.44;;;15.36;81.25
29461;BME280;16428;47.836;35.106;2022-09-06T05:52:52;101856.44;;;15.41;79.85
29461;BME280;16428;47.836;35.106;2022-09-06T05:55:21;101867.06;;;15.43;80.04
29461;BME280;16428;47.836;35.106;2022-09-06T05:57:49;101862.63;;;15.50;79.03
29461;BME280;16428;47.836;35.106;2022-09-06T06:00:21;101872.38;;;15.59;79.34
29461;BME280;16428;47.836;35.106;2022-09-06T06:02:49;101865.72;;;15.70;79.15
29461;BME280;16428;47.836;35.106;2022-09-06T06:05:17;101865.63;;;15.78;78.84
29461;BME280;16428;47.836;35.106;2022-09-06T06:07:46;101863.09;;;15.76;79.54
29461;BME280;16428;47.836;35.106;2022-09-06T06:10:13;101863.88;;;15.85;77.03
29461;BME280;16428;47.836;35.106;2022-09-06T06:12:43;101866.81;;;15.98;76.36
29461;BME280;16428;47.836;35.106;2022-09-06T06:15:12;101867.94;;;16.04;76.10
29461;BME280;16428;47.836;35.106;2022-09-06T06:17:42;101870.69;;;16.18;76.36
29461;BME280;16428;47.836;35.106;2022-09-06T06:20:12;101868.34;;;16.30;77.15
29461;BME280;16428;47.836;35.106;2022-09-06T06:22:41;101868.59;;;16.35;76.28
29461;BME280;16428;47.836;35.106;2022-09-06T06:25:11;101865.50;;;16.24;75.77
29461;BME280;16428;47.836;35.106;2022-09-06T06:27:43;101867.88;;;16.27;75.45
29461;BME280;16428;47.836;35.106;2022-09-06T06:30:11;101873.75;;;16.30;74.85
29461;BME280;16428;47.836;35.106;2022-09-06T06:32:50;101863.63;;;16.53;75.24
29461;BME280;16428;47.836;35.106;2022-09-06T06:35:24;101876.38;;;16.53;75.45
29461;BME280;16428;47.836;35.106;2022-09-06T06:38:00;101872.25;;;16.57;76.54
29461;BME280;16428;47.836;35.106;2022-09-06T06:40:31;101873.47;;;16.69;77.14
29461;BME280;16428;47.836;35.106;2022-09-06T06:43:10;101872.19;;;16.80;76.94
29461;BME280;16428;47.836;35.106;2022-09-06T06:45:50;101880.91;;;16.97;76.40
29461;BME280;16428;47.836;35.106;2022-09-06T06:48:20;101874.22;;;16.93;76.27
29461;BME280;16428;47.836;35.106;2022-09-06T06:50:54;101875.81;;;16.87;76.99
29461;BME280;16428;47.836;35.106;2022-09-06T06:53:27;101890.13;;;16.96;73.56
29461;BME280;16428;47.836;35.106;2022-09-06T06:55:57;101878.47;;;17.02;73.15
29461;BME280;16428;47.836;35.106;2022-09-06T06:58:27;101884.06;;;17.15;73.63
29461;BME280;16428;47.836;35.106;2022-09-06T07:00:56;101891.59;;;17.34;72.65
29461;BME280;16428;47.836;35.106;2022-09-06T07:03:27;101888.34;;;17.45;70.43
29461;BME280;16428;47.836;35.106;2022-09-06T07:05:56;101894.56;;;17.61;67.95
29461;BME280;16428;47.836;35.106;2022-09-06T07:08:43;101881.59;;;17.56;68.17
29461;BME280;16428;47.836;35.106;2022-09-06T07:11:14;101891.19;;;17.58;68.21
29461;BME280;16428;47.836;35.106;2022-09-06T07:13:48;101884.53;;;17.61;69.33
29461;BME280;16428;47.836;35.106;2022-09-06T07:16:21;101885.03;;;17.65;68.16
29461;BME280;16428;47.836;35.106;2022-09-06T07:18:54;101882.03;;;17.81;65.68
29461;BME280;16428;47.836;35.106;2022-09-06T07:21:25;101886.69;;;17.87;64.28
29461;BME280;16428;47.836;35.106;2022-09-06T07:24:10;101885.06;;;17.92;58.96
29461;BME280;16428;47.836;35.106;2022-09-06T07:26:39;101888.63;;;17.93;60.14
29461;BME280;16428;47.836;35.106;2022-09-06T07:29:33;101886.94;;;18.20;59.22
29461;BME280;16428;47.836;35.106;2022-09-06T07:32:02;101885.78;;;18.08;57.77
29461;BME280;16428;47.836;35.106;2022-09-06T07:34:40;101876.34;;;18.32;57.12
29461;BME280;16428;47.836;35.106;2022-09-06T07:37:09;101869.88;;;18.33;57.21
29461;BME280;16428;47.836;35.106;2022-09-06T07:39:38;101874.47;;;18.32;58.68
29461;BME280;16428;47.836;35.106;2022-09-06T07:42:16;101872.03;;;18.44;57.99
29461;BME280;16428;47.836;35.106;2022-09-06T07:44:47;101879.41;;;18.56;56.74
29461;BME280;16428;47.836;35.106;2022-09-06T07:47:19;101873.22;;;18.69;56.12
29461;BME280;16428;47.836;35.106;2022-09-06T07:50:21;101887.53;;;18.84;54.29
29461;BME280;16428;47.836;35.106;2022-09-06T07:53:13;101870.84;;;18.94;53.27
29461;BME280;16428;47.836;35.106;2022-09-06T07:55:49;101866.88;;;19.03;52.39
29461;BME280;16428;47.836;35.106;2022-09-06T07:58:17;101878.00;;;19.15;51.72
29461;BME280;16428;47.836;35.106;2022-09-06T08:00:50;101876.16;;;19.22;50.48
29461;BME280;16428;47.836;35.106;2022-09-06T08:03:19;101869.56;;;18.96;49.50
29461;BME280;16428;47.836;35.106;2022-09-06T08:05:49;101869.19;;;19.13;48.48
29461;BME280;16428;47.836;35.106;2022-09-06T08:08:39;101870.25;;;19.12;49.09
29461;BME280;16428;47.836;35.106;2022-09-06T08:11:36;101868.81;;;19.29;50.79
29461;BME280;16428;47.836;35.106;2022-09-06T08:14:06;101863.88;;;19.59;49.78
29461;BME280;16428;47.836;35.106;2022-09-06T08:16:46;101852.91;;;19.46;48.08
29461;BME280;16428;47.836;35.106;2022-09-06T08:19:21;101847.03;;;19.22;49.45
29461;BME280;16428;47.836;35.106;2022-09-06T08:21:53;101851.19;;;19.12;49.13
29461;BME280;16428;47.836;35.106;2022-09-06T08:24:22;101851.94;;;18.86;49.87
29461;BME280;16428;47.836;35.106;2022-09-06T08:26:53;101850.78;;;19.08;50.39
29461;BME280;16428;47.836;35.106;2022-09-06T08:29:22;101849.88;;;18.94;50.78
29461;BME280;16428;47.836;35.106;2022-09-06T08:31:55;101853.41;;;18.88;48.45
29461;BME280;16428;47.836;35.106;2022-09-06T08:34:26;101836.25;;;18.88;48.01
29461;BME280;16428;47.836;35.106;2022-09-06T08:36:55;101846.19;;;19.22;49.12
29461;BME280;16428;47.836;35.106;2022-09-06T08:39:25;101841.53;;;19.03;48.20
29461;BME280;16428;47.836;35.106;2022-09-06T08:42:03;101842.34;;;18.90;48.33
29461;BME280;16428;47.836;35.106;2022-09-06T08:44:40;101836.84;;;18.83;47.99
29461;BME280;16428;47.836;35.106;2022-09-06T08:47:28;101839.84;;;19.02;48.60
29461;BME280;16428;47.836;35.106;2022-09-06T08:50:05;101837.53;;;18.98;47.99
29461;BME280;16428;47.836;35.106;2022-09-06T08:53:04;101841.09;;;18.99;46.96
29461;BME280;16428;47.836;35.106;2022-09-06T08:55:54;101845.16;;;19.23;47.59
29461;BME280;16428;47.836;35.106;2022-09-06T08:59:25;101845.00;;;19.57;45.84
29461;BME280;16428;47.836;35.106;2022-09-06T09:04:57;101840.38;;;19.78;42.69
29461;BME280;16428;47.836;35.106;2022-09-06T09:07:43;101828.84;;;19.76;43.44
29461;BME280;16428;47.836;35.106;2022-09-06T09:10:20;101829.88;;;19.88;44.04
29461;BME280;16428;47.836;35.106;2022-09-06T09:12:52;101828.44;;;19.79;44.40
29461;BME280;16428;47.836;35.106;2022-09-06T09:15:20;101830.69;;;19.42;44.98
29461;BME280;16428;47.836;35.106;2022-09-06T09:17:53;101832.38;;;19.23;44.21
29461;BME280;16428;47.836;35.106;2022-09-06T09:20:31;101833.69;;;19.60;44.16
29461;BME280;16428;47.836;35.106;2022-09-06T09:23:00;101832.00;;;19.66;43.59
29461;BME280;16428;47.836;35.106;2022-09-06T09:25:31;101828.81;;;19.43;43.77
29461;BME280;16428;47.836;35.106;2022-09-06T09:28:13;101829.00;;;19.41;44.07
29461;BME280;16428;47.836;35.106;2022-09-06T09:30:50;101831.94;;;19.20;44.47
29461;BME280;16428;47.836;35.106;2022-09-06T09:33:36;101830.25;;;19.19;44.16
29461;BME280;16428;47.836;35.106;2022-09-06T09:36:12;101828.16;;;19.21;44.01
29461;BME280;16428;47.836;35.106;2022-09-06T09:38:45;101824.19;;;19.30;43.85
29461;BME280;16428;47.836;35.106;2022-09-06T09:41:31;101826.97;;;19.63;43.50
29461;BME280;16428;47.836;35.106;2022-09-06T09:44:03;101824.88;;;19.65;41.80
29461;BME280;16428;47.836;35.106;2022-09-06T09:46:38;101828.03;;;19.55;42.15
29461;BME280;16428;47.836;35.106;2022-09-06T09:49:38;101835.97;;;19.77;42.30
29461;BME280;16428;47.836;35.106;2022-09-06T09:52:13;101829.44;;;19.45;42.03
29461;BME280;16428;47.836;35.106;2022-09-06T09:54:45;101833.41;;;19.42;43.67
29461;BME280;16428;47.836;35.106;2022-09-06T09:57:18;101832.75;;;19.14;42.73
29461;BME280;16428;47.836;35.106;2022-09-06T09:59:55;101836.34;;;19.34;43.02
29461;BME280;16428;47.836;35.106;2022-09-06T10:02:38;101839.09;;;19.47;42.42
29461;BME280;16428;47.836;35.106;2022-09-06T10:05:20;101828.22;;;19.60;41.78
29461;BME280;16428;47.836;35.106;2022-09-06T10:07:54;101830.34;;;19.65;42.19
29461;BME280;16428;47.836;35.106;2022-09-06T10:15:51;101832.84;;;19.53;41.19
29461;BME280;16428;47.836;35.106;2022-09-06T10:18:32;101830.50;;;19.44;41.46
29461;BME280;16428;47.836;35.106;2022-09-06T10:21:14;101832.38;;;19.43;41.50
29461;BME280;16428;47.836;35.106;2022-09-06T10:26:58;101828.84;;;19.49;39.22
29461;BME280;16428;47.836;35.106;2022-09-06T10:29:52;101825.50;;;19.74;39.98
29461;BME280;16428;47.836;35.106;2022-09-06T10:32:59;101832.41;;;19.96;39.32
29461;BME280;16428;47.836;35.106;2022-09-06T10:35:38;101832.44;;;19.70;39.81
29461;BME280;16428;47.836;35.106;2022-09-06T10:44:18;101826.34;;;19.54;40.98
29461;BME280;16428;47.836;35.106;2022-09-06T10:47:13;101822.09;;;19.32;41.88
29461;BME280;16428;47.836;35.106;2022-09-06T10:49:49;101824.38;;;19.28;42.94
29461;BME280;16428;47.836;35.106;2022-09-06T10:52:31;101826.09;;;19.43;41.31
29461;BME280;16428;47.836;35.106;2022-09-06T10:55:01;101818.78;;;19.56;41.17
29461;BME280;16428;47.836;35.106;2022-09-06T10:57:44;101812.28;;;19.77;41.17
29461;BME280;16428;47.836;35.106;2022-09-06T11:00:40;101816.41;;;20.26;39.08
29461;BME280;16428;47.836;35.106;2022-09-06T11:03:42;101814.56;;;20.13;38.71
29461;BME280;16428;47.836;35.106;2022-09-06T11:06:31;101818.50;;;20.17;40.19
29461;BME280;16428;47.836;35.106;2022-09-06T11:09:26;101811.41;;;20.16;37.93
29461;BME280;16428;47.836;35.106;2022-09-06T11:15:02;101800.22;;;20.38;38.30
29461;BME280;16428;47.836;35.106;2022-09-06T11:20:45;101811.69;;;20.59;37.48
29461;BME280;16428;47.836;35.106;2022-09-06T11:29:26;101808.47;;;20.11;38.97
29461;BME280;16428;47.836;35.106;2022-09-06T11:32:02;101803.38;;;20.41;39.86
29461;BME280;16428;47.836;35.106;2022-09-06T11:34:54;101787.69;;;20.75;38.00
29461;BME280;16428;47.836;35.106;2022-09-06T11:37:40;101796.03;;;20.86;38.37
29461;BME280;16428;47.836;35.106;2022-09-06T11:40:28;101795.84;;;21.13;37.36
29461;BME280;16428;47.836;35.106;2022-09-06T11:43:40;101799.19;;;20.83;37.08
29461;BME280;16428;47.836;35.106;2022-09-06T11:49:31;101787.50;;;20.63;38.18
29461;BME280;16428;47.836;35.106;2022-09-06T11:55:11;101786.47;;;21.02;37.53
29461;BME280;16428;47.836;35.106;2022-09-06T11:57:42;101792.22;;;20.87;37.30
29461;BME280;16428;47.836;35.106;2022-09-06T12:00:21;101775.59;;;20.51;36.93
29461;BME280;16428;47.836;35.106;2022-09-06T12:02:56;101772.28;;;20.42;37.70
29461;BME280;16428;47.836;35.106;2022-09-06T12:06:22;101778.75;;;20.48;36.39
29461;BME280;16428;47.836;35.106;2022-09-06T12:08:55;101773.72;;;20.51;36.38
29461;BME280;16428;47.836;35.106;2022-09-06T12:11:44;101771.81;;;20.58;36.40
29461;BME280;16428;47.836;35.106;2022-09-06T12:14:41;101774.34;;;20.53;36.21
29461;BME280;16428;47.836;35.106;2022-09-06T12:17:45;101777.56;;;20.17;37.59
29461;BME280;16428;47.836;35.106;2022-09-06T12:26:08;101783.34;;;20.98;36.65
29461;BME280;16428;47.836;35.106;2022-09-06T12:28:51;101783.59;;;20.90;37.01
29461;BME280;16428;47.836;35.106;2022-09-06T12:31:43;101775.34;;;21.35;36.02
29461;BME280;16428;47.836;35.106;2022-09-06T12:34:33;101778.84;;;21.85;35.47
29461;BME280;16428;47.836;35.106;2022-09-06T12:37:10;101775.63;;;22.68;34.40
29461;BME280;16428;47.836;35.106;2022-09-06T12:39:39;101767.69;;;22.78;33.81
29461;BME280;16428;47.836;35.106;2022-09-06T12:42:13;101771.41;;;23.13;32.42
29461;BME280;16428;47.836;35.106;2022-09-06T12:44:49;101765.06;;;22.53;33.20
29461;BME280;16428;47.836;35.106;2022-09-06T12:47:39;101779.31;;;23.45;32.91
29461;BME280;16428;47.836;35.106;2022-09-06T12:50:23;101779.25;;;23.63;32.51
29461;BME280;16428;47.836;35.106;2022-09-06T12:52:59;101779.84;;;23.65;31.81
29461;BME280;16428;47.836;35.106;2022-09-06T12:55:35;101765.41;;;23.70;32.26
29461;BME280;16428;47.836;35.106;2022-09-06T12:58:11;101770.63;;;24.70;30.48
29461;BME280;16428;47.836;35.106;2022-09-06T13:00:47;101765.75;;;25.34;29.13
29461;BME280;16428;47.836;35.106;2022-09-06T13:06:43;101760.41;;;25.44;28.95
29461;BME280;16428;47.836;35.106;2022-09-06T13:09:16;101757.78;;;24.59;30.00
29461;BME280;16428;47.836;35.106;2022-09-06T13:11:55;101776.00;;;23.55;31.27
29461;BME280;16428;47.836;35.106;2022-09-06T13:14:30;101773.94;;;22.85;32.22
29461;BME280;16428;47.836;35.106;2022-09-06T13:17:03;101780.91;;;22.33;32.99
29461;BME280;16428;47.836;35.106;2022-09-06T13:19:38;101778.47;;;22.25;33.28
29461;BME280;16428;47.836;35.106;2022-09-06T13:22:09;101776.25;;;22.33;32.73
29461;BME280;16428;47.836;35.106;2022-09-06T13:24:45;101787.75;;;21.81;34.09
29461;BME280;16428;47.836;35.106;2022-09-06T13:29:59;101780.19;;;21.58;35.67
29461;BME280;16428;47.836;35.106;2022-09-06T13:32:29;101773.34;;;20.79;37.09
29461;BME280;16428;47.836;35.106;2022-09-06T13:35:00;101776.34;;;20.71;37.16
29461;BME280;16428;47.836;35.106;2022-09-06T13:37:32;101766.75;;;21.31;37.04
29461;BME280;16428;47.836;35.106;2022-09-06T13:43:46;101772.91;;;22.98;33.34
29461;BME280;16428;47.836;35.106;2022-09-06T13:46:19;101769.09;;;22.99;33.15
29461;BME280;16428;47.836;35.106;2022-09-06T13:48:47;101769.44;;;22.42;33.45
29461;BME280;16428;47.836;35.106;2022-09-06T13:51:18;101769.97;;;21.90;33.45
29461;BME280;16428;47.836;35.106;2022-09-06T13:53:51;101768.31;;;22.80;31.92
29461;BME280;16428;47.836;35.106;2022-09-06T13:56:34;101775.91;;;22.78;33.49
29461;BME280;16428;47.836;35.106;2022-09-06T13:59:04;101769.59;;;22.29;32.94
29461;BME280;16428;47.836;35.106;2022-09-06T14:01:35;101765.94;;;21.24;34.28
29461;BME280;16428;47.836;35.106;2022-09-06T14:04:06;101758.50;;;21.06;34.57
29461;BME280;16428;47.836;35.106;2022-09-06T14:06:35;101761.59;;;21.10;34.59
29461;BME280;16428;47.836;35.106;2022-09-06T14:09:07;101772.22;;;21.31;34.32
29461;BME280;16428;47.836;35.106;2022-09-06T14:11:40;101766.28;;;20.65;35.17
29461;BME280;16428;47.836;35.106;2022-09-06T14:14:16;101773.53;;;20.33;36.41
29461;BME280;16428;47.836;35.106;2022-09-06T14:16:47;101782.91;;;19.99;37.19
29461;BME280;16428;47.836;35.106;2022-09-06T14:19:18;101792.81;;;19.67;37.39
29461;BME280;16428;47.836;35.106;2022-09-06T14:21:47;101778.75;;;19.57;37.93
29461;BME280;16428;47.836;35.106;2022-09-06T14:24:19;101785.66;;;19.66;37.42
29461;BME280;16428;47.836;35.106;2022-09-06T14:26:48;101789.25;;;19.53;37.94
29461;BME280;16428;47.836;35.106;2022-09-06T14:29:27;101791.72;;;19.35;38.52
29461;BME280;16428;47.836;35.106;2022-09-06T14:32:01;101790.00;;;19.01;38.69
29461;BME280;16428;47.836;35.106;2022-09-06T14:34:32;101787.84;;;18.83;38.66
29461;BME280;16428;47.836;35.106;2022-09-06T14:37:08;101789.34;;;18.92;38.69
29461;BME280;16428;47.836;35.106;2022-09-06T14:42:53;101786.13;;;18.69;39.04
29461;BME280;16428;47.836;35.106;2022-09-06T14:45:35;101789.63;;;18.56;39.10
29461;BME280;16428;47.836;35.106;2022-09-06T14:48:07;101793.56;;;18.54;39.20
29461;BME280;16428;47.836;35.106;2022-09-06T14:50:38;101784.56;;;18.47;40.05
29461;BME280;16428;47.836;35.106;2022-09-06T14:53:14;101788.31;;;18.46;39.76
29461;BME280;16428;47.836;35.106;2022-09-06T14:56:11;101793.00;;;18.17;38.19